sensor_id;sensor_type;location;lat;lon;timestamp;pressure;altitude;pressure_sealevel;temperature;humidity
22257;BME280;11297;42.686;23.374;2022-12-07T00:01:34;95002.81;;;9.99;64.83
22257;BME280;11297;42.686;23.374;2022-12-07T00:04:02;94991.19;;;9.96;65.29
22257;BME280;11297;42.686;23.374;2022-12-07T00:06:39;94998.28;;;9.91;65.17
22257;BME280;11297;42.686;23.374;2022-12-07T00:09:09;94999.38;;;9.90;65.48
22257;BME280;11297;42.686;23.374;2022-12-07T00:11:35;94995.06;;;9.85;65.61
22257;BME280;11297;42.686;23.374;2022-12-07T00:14:02;94996.34;;;9.74;66.45
22257;BME280;11297;42.686;23.374;2022-12-07T00:16:31;94991.75;;;9.71;66.21
22257;BME280;11297;42.686;23.374;2022-12-07T00:18:57;94989.91;;;9.50;67.25
22257;BME280;11297;42.686;23.374;2022-12-07T00:21:34;94992.19;;;9.52;67.10
22257;BME280;11297;42.686;23.374;2022-12-07T00:24:00;94992.19;;;9.52;67.46
22257;BME280;11297;42.686;23.374;2022-12-07T00:26:31;94988.59;;;9.39;67.42
22257;BME280;11297;42.686;23.374;2022-12-07T00:29:00;94988.34;;;9.49;67.42
22257;BME280;11297;42.686;23.374;2022-12-07T00:31:28;94994.50;;;9.53;67.56
22257;BME280;11297;42.686;23.374;2022-12-07T00:33:55;94988.13;;;9.59;67.41
22257;BME280;11297;42.686;23.374;2022-12-07T00:36:22;94986.59;;;9.58;67.47
22257;BME280;11297;42.686;23.374;2022-12-07T00:38:48;95000.91;;;9.69;66.90
22257;BME280;11297;42.686;23.374;2022-12-07T00:41:15;95009.22;;;9.79;66.98
22257;BME280;11297;42.686;23.374;2022-12-07T00:43:42;94989.88;;;9.85;66.50
22257;BME280;11297;42.686;23.374;2022-12-07T00:46:08;94994.19;;;9.90;66.10
22257;BME280;11297;42.686;23.374;2022-12-07T00:48:34;94993.34;;;9.94;66.31
22257;BME280;11297;42.686;23.374;2022-12-07T00:51:00;94990.44;;;9.96;65.20
22257;BME280;11297;42.686;23.374;2022-12-07T00:53:26;94985.28;;;10.04;65.71
22257;BME280;11297;42.686;23.374;2022-12-07T00:55:51;94981.81;;;10.08;65.42
22257;BME280;11297;42.686;23.374;2022-12-07T00:58:18;94980.91;;;10.13;65.65
22257;BME280;11297;42.686;23.374;2022-12-07T01:00:44;94977.72;;;10.16;65.06
22257;BME280;11297;42.686;23.374;2022-12-07T01:03:11;94984.47;;;10.17;64.64
22257;BME280;11297;42.686;23.374;2022-12-07T01:05:38;94975.31;;;10.19;64.78
22257;BME280;11297;42.686;23.374;2022-12-07T01:08:04;94972.09;;;10.14;64.72
22257;BME280;11297;42.686;23.374;2022-12-07T01:10:29;94973.78;;;10.18;64.87
22257;BME280;11297;42.686;23.374;2022-12-07T01:12:56;94973.00;;;10.18;64.71
22257;BME280;11297;42.686;23.374;2022-12-07T01:15:22;94980.16;;;10.12;65.19
22257;BME280;11297;42.686;23.374;2022-12-07T01:17:47;94977.41;;;10.09;64.80
22257;BME280;11297;42.686;23.374;2022-12-07T01:20:13;94964.44;;;10.09;65.05
22257;BME280;11297;42.686;23.374;2022-12-07T01:22:40;94979.13;;;10.13;65.39
22257;BME280;11297;42.686;23.374;2022-12-07T01:25:07;94968.25;;;10.11;65.04
22257;BME280;11297;42.686;23.374;2022-12-07T01:27:33;94964.44;;;10.09;65.50
22257;BME280;11297;42.686;23.374;2022-12-07T01:29:59;94951.75;;;10.07;64.89
22257;BME280;11297;42.686;23.374;2022-12-07T01:32:25;94960.63;;;10.15;64.88
22257;BME280;11297;42.686;23.374;2022-12-07T01:34:51;94969.19;;;10.15;64.44
22257;BME280;11297;42.686;23.374;2022-12-07T01:37:16;94958.69;;;10.20;64.46
22257;BME280;11297;42.686;23.374;2022-12-07T01:39:41;94971.50;;;10.25;64.39
22257;BME280;11297;42.686;23.374;2022-12-07T01:42:11;94951.53;;;10.26;64.22
22257;BME280;11297;42.686;23.374;2022-12-07T01:45:41;94964.09;;;10.32;63.99
22257;BME280;11297;42.686;23.374;2022-12-07T01:47:43;94963.31;;;10.32;63.88
22257;BME280;11297;42.686;23.374;2022-12-07T01:50:11;94971.28;;;10.35;63.62
22257;BME280;11297;42.686;23.374;2022-12-07T01:52:38;94956.16;;;10.37;63.57
22257;BME280;11297;42.686;23.374;2022-12-07T01:55:08;94951.56;;;10.34;63.85
22257;BME280;11297;42.686;23.374;2022-12-07T01:57:37;94953.06;;;10.27;64.05
22257;BME280;11297;42.686;23.374;2022-12-07T02:00:06;94946.34;;;10.26;64.32
22257;BME280;11297;42.686;23.374;2022-12-07T02:02:39;94955.94;;;10.25;64.25
22257;BME280;11297;42.686;23.374;2022-12-07T02:05:07;94945.41;;;10.22;64.16
22257;BME280;11297;42.686;23.374;2022-12-07T02:07:36;94938.81;;;10.16;64.13
22257;BME280;11297;42.686;23.374;2022-12-07T02:10:21;94943.53;;;10.14;64.60
22257;BME280;11297;42.686;23.374;2022-12-07T02:12:51;94937.41;;;10.10;64.52
22257;BME280;11297;42.686;23.374;2022-12-07T02:15:20;94941.66;;;10.06;64.71
22257;BME280;11297;42.686;23.374;2022-12-07T02:20:47;94932.81;;;10.07;64.69
22257;BME280;11297;42.686;23.374;2022-12-07T02:23:59;94945.03;;;10.15;64.85
22257;BME280;11297;42.686;23.374;2022-12-07T02:31:38;94932.41;;;10.22;64.59
22257;BME280;11297;42.686;23.374;2022-12-07T02:34:08;94920.63;;;10.16;64.17
22257;BME280;11297;42.686;23.374;2022-12-07T02:36:41;94919.00;;;10.20;64.63
22257;BME280;11297;42.686;23.374;2022-12-07T02:39:20;94919.75;;;10.20;64.55
22257;BME280;11297;42.686;23.374;2022-12-07T02:41:55;94918.69;;;10.21;64.57
22257;BME280;11297;42.686;23.374;2022-12-07T02:44:25;94922.34;;;10.20;64.45
22257;BME280;11297;42.686;23.374;2022-12-07T02:47:03;94923.88;;;10.21;64.24
22257;BME280;11297;42.686;23.374;2022-12-07T02:49:30;94938.66;;;10.21;64.32
22257;BME280;11297;42.686;23.374;2022-12-07T02:51:56;94929.06;;;10.21;64.37
22257;BME280;11297;42.686;23.374;2022-12-07T02:54:22;94919.16;;;10.23;64.49
22257;BME280;11297;42.686;23.374;2022-12-07T03:07:14;94910.00;;;9.96;64.99
22257;BME280;11297;42.686;23.374;2022-12-07T03:12:27;94909.53;;;9.94;64.99
22257;BME280;11297;42.686;23.374;2022-12-07T03:15:09;94913.06;;;9.98;65.20
22257;BME280;11297;42.686;23.374;2022-12-07T03:17:38;94905.97;;;9.90;65.30
22257;BME280;11297;42.686;23.374;2022-12-07T03:20:07;94907.88;;;9.98;64.85
22257;BME280;11297;42.686;23.374;2022-12-07T03:22:35;94905.44;;;10.01;64.73
22257;BME280;11297;42.686;23.374;2022-12-07T03:25:06;94904.25;;;10.07;64.97
22257;BME280;11297;42.686;23.374;2022-12-07T03:27:55;94906.25;;;10.10;64.47
22257;BME280;11297;42.686;23.374;2022-12-07T03:30:25;94902.59;;;10.11;64.77
22257;BME280;11297;42.686;23.374;2022-12-07T03:32:59;94908.72;;;10.15;64.58
22257;BME280;11297;42.686;23.374;2022-12-07T03:35:31;94910.09;;;10.12;64.68
22257;BME280;11297;42.686;23.374;2022-12-07T03:40:30;94917.16;;;10.20;64.20
22257;BME280;11297;42.686;23.374;2022-12-07T03:42:59;94916.38;;;10.20;64.34
22257;BME280;11297;42.686;23.374;2022-12-07T03:45:37;94906.00;;;10.20;64.49
22257;BME280;11297;42.686;23.374;2022-12-07T03:50:45;94904.16;;;10.20;64.09
22257;BME280;11297;42.686;23.374;2022-12-07T03:53:31;94904.75;;;10.17;64.15
22257;BME280;11297;42.686;23.374;2022-12-07T03:56:00;94913.59;;;10.16;64.16
22257;BME280;11297;42.686;23.374;2022-12-07T03:58:27;94910.38;;;10.11;64.61
22257;BME280;11297;42.686;23.374;2022-12-07T04:00:53;94905.63;;;10.04;64.46
22257;BME280;11297;42.686;23.374;2022-12-07T04:03:18;94898.09;;;9.95;65.02
22257;BME280;11297;42.686;23.374;2022-12-07T04:05:44;94901.31;;;9.78;65.44
22257;BME280;11297;42.686;23.374;2022-12-07T04:08:10;94909.75;;;9.62;65.57
22257;BME280;11297;42.686;23.374;2022-12-07T04:10:35;94903.09;;;9.48;66.71
22257;BME280;11297;42.686;23.374;2022-12-07T04:13:01;94894.38;;;9.44;66.91
22257;BME280;11297;42.686;23.374;2022-12-07T04:15:26;94900.91;;;9.41;67.60
22257;BME280;11297;42.686;23.374;2022-12-07T04:17:52;94908.22;;;9.39;67.37
22257;BME280;11297;42.686;23.374;2022-12-07T04:20:18;94895.28;;;9.39;67.78
22257;BME280;11297;42.686;23.374;2022-12-07T04:22:44;94887.41;;;9.31;67.90
22257;BME280;11297;42.686;23.374;2022-12-07T04:25:09;94892.47;;;9.36;67.56
22257;BME280;11297;42.686;23.374;2022-12-07T04:27:35;94896.44;;;9.33;67.31
22257;BME280;11297;42.686;23.374;2022-12-07T04:30:00;94896.44;;;9.33;67.69
22257;BME280;11297;42.686;23.374;2022-12-07T04:32:26;94900.25;;;9.36;67.67
22257;BME280;11297;42.686;23.374;2022-12-07T04:34:51;94913.00;;;9.46;67.47
22257;BME280;11297;42.686;23.374;2022-12-07T04:37:16;94898.31;;;9.41;67.37
22257;BME280;11297;42.686;23.374;2022-12-07T04:39:42;94902.28;;;9.60;73.84
22257;BME280;11297;42.686;23.374;2022-12-07T04:42:10;94895.56;;;9.59;69.08
22257;BME280;11297;42.686;23.374;2022-12-07T04:44:35;94906.22;;;9.58;67.60
22257;BME280;11297;42.686;23.374;2022-12-07T04:47:01;94917.53;;;9.62;67.12
22257;BME280;11297;42.686;23.374;2022-12-07T04:49:27;94912.06;;;9.63;66.64
22257;BME280;11297;42.686;23.374;2022-12-07T04:51:52;94911.53;;;9.53;66.96
22257;BME280;11297;42.686;23.374;2022-12-07T04:54:18;94915.38;;;9.55;66.31
22257;BME280;11297;42.686;23.374;2022-12-07T04:56:44;94906.34;;;9.53;66.57
22257;BME280;11297;42.686;23.374;2022-12-07T04:59:11;94914.28;;;9.56;66.67
22257;BME280;11297;42.686;23.374;2022-12-07T05:01:37;94904.81;;;9.52;67.01
22257;BME280;11297;42.686;23.374;2022-12-07T05:04:03;94907.97;;;9.49;66.89
22257;BME280;11297;42.686;23.374;2022-12-07T05:06:28;94904.63;;;9.49;66.66
22257;BME280;11297;42.686;23.374;2022-12-07T05:08:54;94899.75;;;9.47;66.82
22257;BME280;11297;42.686;23.374;2022-12-07T05:11:19;94905.13;;;10.24;86.37
22257;BME280;11297;42.686;23.374;2022-12-07T05:14:12;94911.81;;;9.95;70.40
22257;BME280;11297;42.686;23.374;2022-12-07T05:16:42;94916.00;;;9.83;67.43
22257;BME280;11297;42.686;23.374;2022-12-07T05:19:08;94918.06;;;9.72;67.11
22257;BME280;11297;42.686;23.374;2022-12-07T05:21:34;94916.06;;;9.69;66.90
22257;BME280;11297;42.686;23.374;2022-12-07T05:24:00;94908.50;;;9.59;67.05
22257;BME280;11297;42.686;23.374;2022-12-07T05:26:25;94914.78;;;9.58;66.92
22257;BME280;11297;42.686;23.374;2022-12-07T05:28:52;94907.88;;;9.54;67.39
22257;BME280;11297;42.686;23.374;2022-12-07T05:31:18;94913.66;;;9.51;67.42
22257;BME280;11297;42.686;23.374;2022-12-07T05:33:44;94918.34;;;9.49;67.37
22257;BME280;11297;42.686;23.374;2022-12-07T05:36:09;94915.75;;;9.49;67.86
22257;BME280;11297;42.686;23.374;2022-12-07T05:38:35;94913.47;;;9.48;67.40
22257;BME280;11297;42.686;23.374;2022-12-07T05:41:01;94907.66;;;9.42;67.85
22257;BME280;11297;42.686;23.374;2022-12-07T05:43:28;94909.22;;;9.52;67.43
22257;BME280;11297;42.686;23.374;2022-12-07T05:45:53;94914.13;;;9.53;67.00
22257;BME280;11297;42.686;23.374;2022-12-07T05:48:18;94908.28;;;12.37;100.00
22257;BME280;11297;42.686;23.374;2022-12-07T05:50:44;94904.00;;;13.27;100.00
22257;BME280;11297;42.686;23.374;2022-12-07T05:53:12;94906.13;;;13.85;100.00
22257;BME280;11297;42.686;23.374;2022-12-07T05:55:37;94894.53;;;14.39;84.74
22257;BME280;11297;42.686;23.374;2022-12-07T05:58:02;94896.84;;;14.76;66.47
22257;BME280;11297;42.686;23.374;2022-12-07T06:00:46;94888.78;;;15.44;67.38
22257;BME280;11297;42.686;23.374;2022-12-07T06:03:12;94897.97;;;16.04;64.09
22257;BME280;11297;42.686;23.374;2022-12-07T06:05:37;94893.13;;;16.33;51.66
22257;BME280;11297;42.686;23.374;2022-12-07T06:08:02;94889.00;;;16.05;47.92
22257;BME280;11297;42.686;23.374;2022-12-07T06:10:28;94867.34;;;15.38;48.09
22257;BME280;11297;42.686;23.374;2022-12-07T06:12:53;94889.19;;;15.07;49.04
22257;BME280;11297;42.686;23.374;2022-12-07T06:15:19;94886.06;;;14.54;49.78
22257;BME280;11297;42.686;23.374;2022-12-07T06:17:44;94894.88;;;14.05;51.65
22257;BME280;11297;42.686;23.374;2022-12-07T06:20:10;94882.63;;;13.33;52.88
22257;BME280;11297;42.686;23.374;2022-12-07T06:22:35;94899.72;;;13.02;53.78
22257;BME280;11297;42.686;23.374;2022-12-07T06:25:01;94910.19;;;12.65;55.06
22257;BME280;11297;42.686;23.374;2022-12-07T06:27:26;94905.72;;;12.28;56.17
22257;BME280;11297;42.686;23.374;2022-12-07T06:29:52;94910.25;;;11.94;57.30
22257;BME280;11297;42.686;23.374;2022-12-07T06:32:17;94901.84;;;11.72;58.32
22257;BME280;11297;42.686;23.374;2022-12-07T06:34:42;94910.59;;;11.50;59.31
22257;BME280;11297;42.686;23.374;2022-12-07T06:37:08;94910.56;;;11.34;59.90
22257;BME280;11297;42.686;23.374;2022-12-07T06:39:33;94907.03;;;11.13;60.87
22257;BME280;11297;42.686;23.374;2022-12-07T06:41:59;94913.13;;;11.08;61.09
22257;BME280;11297;42.686;23.374;2022-12-07T06:44:25;94916.03;;;10.98;61.98
22257;BME280;11297;42.686;23.374;2022-12-07T06:46:50;94919.53;;;10.86;62.21
22257;BME280;11297;42.686;23.374;2022-12-07T06:49:16;94920.28;;;10.78;62.54
22257;BME280;11297;42.686;23.374;2022-12-07T06:51:42;94926.69;;;10.72;62.78
22257;BME280;11297;42.686;23.374;2022-12-07T06:54:09;94921.16;;;10.65;63.47
22257;BME280;11297;42.686;23.374;2022-12-07T06:56:35;94912.56;;;10.56;63.51
22257;BME280;11297;42.686;23.374;2022-12-07T06:59:00;94920.34;;;10.56;64.19
22257;BME280;11297;42.686;23.374;2022-12-07T07:01:26;94921.69;;;10.53;63.87
22257;BME280;11297;42.686;23.374;2022-12-07T07:03:51;94920.00;;;10.49;64.09
22257;BME280;11297;42.686;23.374;2022-12-07T07:06:17;94897.78;;;10.26;64.32
22257;BME280;11297;42.686;23.374;2022-12-07T07:08:43;94919.50;;;10.30;65.12
22257;BME280;11297;42.686;23.374;2022-12-07T07:11:09;94931.56;;;10.35;64.63
22257;BME280;11297;42.686;23.374;2022-12-07T07:13:35;94913.50;;;10.30;64.92
22257;BME280;11297;42.686;23.374;2022-12-07T07:16:00;94917.66;;;10.31;65.47
22257;BME280;11297;42.686;23.374;2022-12-07T07:18:26;94929.09;;;10.30;65.12
22257;BME280;11297;42.686;23.374;2022-12-07T07:20:52;94925.13;;;10.32;65.34
22257;BME280;11297;42.686;23.374;2022-12-07T07:23:18;94921.59;;;10.28;65.62
22257;BME280;11297;42.686;23.374;2022-12-07T07:25:45;94923.91;;;10.30;65.19
22257;BME280;11297;42.686;23.374;2022-12-07T07:28:10;94930.50;;;10.36;65.04
22257;BME280;11297;42.686;23.374;2022-12-07T07:30:36;94926.69;;;10.33;64.89
22257;BME280;11297;42.686;23.374;2022-12-07T07:33:02;94929.28;;;10.42;64.49
22257;BME280;11297;42.686;23.374;2022-12-07T07:35:30;94927.13;;;10.35;65.33
22257;BME280;11297;42.686;23.374;2022-12-07T07:37:56;94937.88;;;10.42;65.13
22257;BME280;11297;42.686;23.374;2022-12-07T07:40:21;94926.88;;;10.45;64.43
22257;BME280;11297;42.686;23.374;2022-12-07T07:42:51;94928.78;;;10.61;64.18
22257;BME280;11297;42.686;23.374;2022-12-07T07:45:17;94939.38;;;10.82;63.71
22257;BME280;11297;42.686;23.374;2022-12-07T07:47:42;94938.03;;;10.93;63.82
22257;BME280;11297;42.686;23.374;2022-12-07T07:50:08;94935.78;;;11.08;63.15
22257;BME280;11297;42.686;23.374;2022-12-07T07:52:34;94931.03;;;11.18;63.04
22257;BME280;11297;42.686;23.374;2022-12-07T07:54:59;94923.72;;;11.45;62.49
22257;BME280;11297;42.686;23.374;2022-12-07T07:57:24;94928.31;;;11.82;60.03
22257;BME280;11297;42.686;23.374;2022-12-07T07:59:50;94914.72;;;11.68;60.71
22257;BME280;11297;42.686;23.374;2022-12-07T08:02:17;94926.94;;;12.47;58.33
22257;BME280;11297;42.686;23.374;2022-12-07T08:04:43;94919.06;;;13.01;57.29
22257;BME280;11297;42.686;23.374;2022-12-07T08:07:10;94922.00;;;13.40;55.75
22257;BME280;11297;42.686;23.374;2022-12-07T08:09:35;94925.03;;;13.83;54.20
22257;BME280;11297;42.686;23.374;2022-12-07T08:12:01;94923.69;;;13.97;53.69
22257;BME280;11297;42.686;23.374;2022-12-07T08:14:26;94918.81;;;13.75;53.87
22257;BME280;11297;42.686;23.374;2022-12-07T08:16:54;94931.13;;;13.75;53.74
22257;BME280;11297;42.686;23.374;2022-12-07T08:19:19;94919.72;;;13.59;53.87
22257;BME280;11297;42.686;23.374;2022-12-07T08:21:44;94924.94;;;13.38;54.30
22257;BME280;11297;42.686;23.374;2022-12-07T08:24:10;94920.97;;;13.33;54.42
22257;BME280;11297;42.686;23.374;2022-12-07T08:26:35;94921.81;;;13.25;55.17
22257;BME280;11297;42.686;23.374;2022-12-07T08:29:01;94917.03;;;13.06;55.62
22257;BME280;11297;42.686;23.374;2022-12-07T08:31:27;94921.19;;;13.48;55.29
22257;BME280;11297;42.686;23.374;2022-12-07T08:33:54;94921.25;;;14.12;53.77
22257;BME280;11297;42.686;23.374;2022-12-07T08:36:20;94927.13;;;14.65;52.05
22257;BME280;11297;42.686;23.374;2022-12-07T08:38:46;94905.00;;;14.75;50.54
22257;BME280;11297;42.686;23.374;2022-12-07T08:41:12;94919.06;;;14.82;49.99
22257;BME280;11297;42.686;23.374;2022-12-07T08:43:37;94910.13;;;14.71;50.32
22257;BME280;11297;42.686;23.374;2022-12-07T08:46:13;94890.28;;;14.34;50.72
22257;BME280;11297;42.686;23.374;2022-12-07T08:49:45;94906.66;;;14.11;51.58
22257;BME280;11297;42.686;23.374;2022-12-07T08:51:51;94906.09;;;13.74;52.40
22257;BME280;11297;42.686;23.374;2022-12-07T08:54:18;94913.81;;;13.50;52.89
22257;BME280;11297;42.686;23.374;2022-12-07T08:56:45;94897.13;;;13.22;53.83
22257;BME280;11297;42.686;23.374;2022-12-07T08:59:14;94897.34;;;13.09;54.40
22257;BME280;11297;42.686;23.374;2022-12-07T09:01:41;94887.69;;;12.81;54.75
22257;BME280;11297;42.686;23.374;2022-12-07T09:04:07;94894.75;;;12.80;55.49
22257;BME280;11297;42.686;23.374;2022-12-07T09:06:33;94894.31;;;12.78;55.77
22257;BME280;11297;42.686;23.374;2022-12-07T09:08:59;94887.28;;;12.70;56.45
22257;BME280;11297;42.686;23.374;2022-12-07T09:11:26;94882.34;;;12.48;56.58
22257;BME280;11297;42.686;23.374;2022-12-07T09:13:52;94886.84;;;12.31;57.56
22257;BME280;11297;42.686;23.374;2022-12-07T09:16:17;94888.28;;;12.20;57.92
22257;BME280;11297;42.686;23.374;2022-12-07T09:18:42;94878.91;;;12.28;57.45
22257;BME280;11297;42.686;23.374;2022-12-07T09:21:08;94869.91;;;12.17;57.65
22257;BME280;11297;42.686;23.374;2022-12-07T09:23:34;94876.78;;;12.21;57.53
22257;BME280;11297;42.686;23.374;2022-12-07T09:26:00;94873.84;;;12.23;57.81
22257;BME280;11297;42.686;23.374;2022-12-07T09:28:26;94867.75;;;12.19;57.96
22257;BME280;11297;42.686;23.374;2022-12-07T09:30:52;94868.06;;;12.17;58.13
22257;BME280;11297;42.686;23.374;2022-12-07T09:33:17;94876.31;;;12.19;58.31
22257;BME280;11297;42.686;23.374;2022-12-07T09:35:50;94869.94;;;12.08;58.59
22257;BME280;11297;42.686;23.374;2022-12-07T09:38:16;94858.91;;;12.03;58.52
22257;BME280;11297;42.686;23.374;2022-12-07T09:40:42;94852.91;;;12.11;58.49
22257;BME280;11297;42.686;23.374;2022-12-07T09:43:17;94840.22;;;12.09;58.58
22257;BME280;11297;42.686;23.374;2022-12-07T09:45:44;94846.31;;;12.13;58.49
22257;BME280;11297;42.686;23.374;2022-12-07T09:48:18;94856.75;;;12.05;58.96
22257;BME280;11297;42.686;23.374;2022-12-07T09:50:46;94839.03;;;11.98;59.28
22257;BME280;11297;42.686;23.374;2022-12-07T09:53:17;94839.22;;;11.93;59.14
22257;BME280;11297;42.686;23.374;2022-12-07T09:55:45;94849.13;;;12.00;58.97
22257;BME280;11297;42.686;23.374;2022-12-07T09:58:19;94844.72;;;11.92;59.26
22257;BME280;11297;42.686;23.374;2022-12-07T10:00:45;94842.13;;;11.84;59.33
22257;BME280;11297;42.686;23.374;2022-12-07T10:03:11;94827.75;;;11.78;59.43
22257;BME280;11297;42.686;23.374;2022-12-07T10:05:42;94833.41;;;11.88;59.75
22257;BME280;11297;42.686;23.374;2022-12-07T10:08:13;94827.25;;;11.93;59.31
22257;BME280;11297;42.686;23.374;2022-12-07T10:10:41;94823.69;;;12.05;59.25
22257;BME280;11297;42.686;23.374;2022-12-07T10:13:09;94820.00;;;12.06;58.89
22257;BME280;11297;42.686;23.374;2022-12-07T10:21:24;94818.38;;;12.31;58.53
22257;BME280;11297;42.686;23.374;2022-12-07T10:29:28;94813.50;;;12.49;57.91
22257;BME280;11297;42.686;23.374;2022-12-07T10:32:01;94808.81;;;12.43;57.78
22257;BME280;11297;42.686;23.374;2022-12-07T10:34:28;94799.41;;;12.50;58.02
22257;BME280;11297;42.686;23.374;2022-12-07T10:42:17;94788.50;;;12.77;57.12
22257;BME280;11297;42.686;23.374;2022-12-07T10:44:43;94785.44;;;12.84;56.92
22257;BME280;11297;42.686;23.374;2022-12-07T11:00:25;94773.56;;;12.66;57.97
22257;BME280;11297;42.686;23.374;2022-12-07T11:05:54;94743.03;;;12.95;57.22
22257;BME280;11297;42.686;23.374;2022-12-07T11:11:18;94746.19;;;13.33;56.12
22257;BME280;11297;42.686;23.374;2022-12-07T11:13:52;94750.28;;;13.22;56.39
22257;BME280;11297;42.686;23.374;2022-12-07T11:16:24;94751.69;;;13.19;56.50
22257;BME280;11297;42.686;23.374;2022-12-07T11:21:57;94756.44;;;13.05;57.16
22257;BME280;11297;42.686;23.374;2022-12-07T11:27:19;94736.66;;;13.37;56.29
22257;BME280;11297;42.686;23.374;2022-12-07T11:30:11;94724.78;;;13.27;56.61
22257;BME280;11297;42.686;23.374;2022-12-07T11:37:40;94704.06;;;13.66;55.35
22257;BME280;11297;42.686;23.374;2022-12-07T11:40:23;94714.00;;;14.08;54.21
22257;BME280;11297;42.686;23.374;2022-12-07T11:42:59;94707.38;;;14.11;53.24
22257;BME280;11297;42.686;23.374;2022-12-07T11:45:33;94689.66;;;14.16;52.81
22257;BME280;11297;42.686;23.374;2022-12-07T11:48:31;94703.44;;;14.29;52.91
22257;BME280;11297;42.686;23.374;2022-12-07T11:51:00;94706.38;;;14.39;52.46
22257;BME280;11297;42.686;23.374;2022-12-07T11:56:06;94695.19;;;14.27;51.97
22257;BME280;11297;42.686;23.374;2022-12-07T12:06:41;94672.50;;;14.31;51.92
22257;BME280;11297;42.686;23.374;2022-12-07T12:09:16;94678.19;;;14.33;51.53
22257;BME280;11297;42.686;23.374;2022-12-07T12:17:26;94673.63;;;14.30;51.78
22257;BME280;11297;42.686;23.374;2022-12-07T12:22:41;94671.47;;;14.08;52.45
22257;BME280;11297;42.686;23.374;2022-12-07T12:25:19;94667.84;;;13.88;53.00
22257;BME280;11297;42.686;23.374;2022-12-07T12:27:47;94670.03;;;13.86;53.46
22257;BME280;11297;42.686;23.374;2022-12-07T12:30:43;94669.72;;;14.00;53.17
22257;BME280;11297;42.686;23.374;2022-12-07T12:33:22;94659.47;;;14.07;53.03
22257;BME280;11297;42.686;23.374;2022-12-07T12:44:38;94645.66;;;13.94;53.50
22257;BME280;11297;42.686;23.374;2022-12-07T12:47:40;94639.13;;;13.88;53.44
22257;BME280;11297;42.686;23.374;2022-12-07T12:50:17;94638.72;;;13.86;54.13
22257;BME280;11297;42.686;23.374;2022-12-07T12:57:36;94638.25;;;13.84;53.84
22257;BME280;11297;42.686;23.374;2022-12-07T13:00:22;94643.69;;;13.91;53.57
22257;BME280;11297;42.686;23.374;2022-12-07T13:02:56;94641.50;;;13.93;53.80
22257;BME280;11297;42.686;23.374;2022-12-07T13:05:30;94644.25;;;13.97;53.95
22257;BME280;11297;42.686;23.374;2022-12-07T13:18:00;94641.00;;;14.12;53.85
22257;BME280;11297;42.686;23.374;2022-12-07T13:20:46;94637.06;;;14.18;53.92
22257;BME280;11297;42.686;23.374;2022-12-07T13:23:13;94632.91;;;14.17;54.05
22257;BME280;11297;42.686;23.374;2022-12-07T13:25:48;94642.50;;;14.13;53.99
22257;BME280;11297;42.686;23.374;2022-12-07T13:28:20;94635.13;;;14.15;54.04
22257;BME280;11297;42.686;23.374;2022-12-07T13:31:09;94644.25;;;14.21;54.05
22257;BME280;11297;42.686;23.374;2022-12-07T13:33:37;94638.06;;;14.13;53.99
22257;BME280;11297;42.686;23.374;2022-12-07T13:36:02;94635.63;;;14.20;54.16
22257;BME280;11297;42.686;23.374;2022-12-07T13:38:31;94627.94;;;14.12;54.21
22257;BME280;11297;42.686;23.374;2022-12-07T13:43:29;94630.63;;;14.15;54.19
22257;BME280;11297;42.686;23.374;2022-12-07T13:45:58;94626.72;;;13.97;54.24
22257;BME280;11297;42.686;23.374;2022-12-07T13:48:43;94619.53;;;13.94;54.71
22257;BME280;11297;42.686;23.374;2022-12-07T13:51:18;94625.66;;;13.98;54.76
22257;BME280;11297;42.686;23.374;2022-12-07T13:54:00;94622.69;;;14.00;54.59
22257;BME280;11297;42.686;23.374;2022-12-07T13:56:34;94616.03;;;14.02;54.66
22257;BME280;11297;42.686;23.374;2022-12-07T13:59:00;94623.78;;;13.99;54.96
22257;BME280;11297;42.686;23.374;2022-12-07T14:01:26;94621.59;;;13.89;55.06
22257;BME280;11297;42.686;23.374;2022-12-07T14:03:51;94615.66;;;13.77;55.25
22257;BME280;11297;42.686;23.374;2022-12-07T14:06:26;94616.72;;;13.76;55.30
22257;BME280;11297;42.686;23.374;2022-12-07T14:09:17;94632.53;;;13.79;55.61
22257;BME280;11297;42.686;23.374;2022-12-07T14:11:44;94630.34;;;13.81;55.64
22257;BME280;11297;42.686;23.374;2022-12-07T14:14:17;94622.72;;;13.88;55.14
22257;BME280;11297;42.686;23.374;2022-12-07T14:16:43;94636.53;;;13.88;55.22
22257;BME280;11297;42.686;23.374;2022-12-07T14:19:46;94631.31;;;13.88;55.35
22257;BME280;11297;42.686;23.374;2022-12-07T14:22:35;94630.97;;;13.90;55.15
22257;BME280;11297;42.686;23.374;2022-12-07T14:27:32;94635.13;;;13.91;54.89
22257;BME280;11297;42.686;23.374;2022-12-07T14:30:03;94621.41;;;13.82;55.55
22257;BME280;11297;42.686;23.374;2022-12-07T14:32:29;94638.06;;;13.78;55.45
22257;BME280;11297;42.686;23.374;2022-12-07T14:34:56;94635.78;;;13.76;55.71
22257;BME280;11297;42.686;23.374;2022-12-07T14:37:22;94635.66;;;13.73;55.86
22257;BME280;11297;42.686;23.374;2022-12-07T14:39:47;94622.84;;;13.68;55.74
22257;BME280;11297;42.686;23.374;2022-12-07T14:42:13;94632.72;;;13.62;55.65
22257;BME280;11297;42.686;23.374;2022-12-07T14:44:38;94634.34;;;13.67;55.92
22257;BME280;11297;42.686;23.374;2022-12-07T14:47:03;94634.91;;;13.60;55.71
22257;BME280;11297;42.686;23.374;2022-12-07T14:49:29;94629.78;;;13.52;56.49
22257;BME280;11297;42.686;23.374;2022-12-07T14:51:54;94623.25;;;13.34;56.76
22257;BME280;11297;42.686;23.374;2022-12-07T14:54:30;94628.47;;;13.34;57.04
22257;BME280;11297;42.686;23.374;2022-12-07T14:56:56;94631.63;;;13.28;57.21
22257;BME280;11297;42.686;23.374;2022-12-07T14:59:21;94629.00;;;13.28;57.31
22257;BME280;11297;42.686;23.374;2022-12-07T15:01:46;94634.22;;;13.28;57.45
22257;BME280;11297;42.686;23.374;2022-12-07T15:04:12;94636.28;;;13.22;57.45